createdAt,value
2023-05-10T00:02:05.343Z,101065.15
2023-05-10T00:04:33.283Z,101066.45
2023-05-10T00:07:01.220Z,101066.98
2023-05-10T00:09:29.381Z,101063.77
2023-05-10T00:11:57.298Z,101066.39
2023-05-10T00:14:25.193Z,101064.00
2023-05-10T00:16:53.254Z,101059.06
2023-05-10T00:19:21.494Z,101054.62
2023-05-10T00:21:49.529Z,101060.63
2023-05-10T00:24:17.395Z,101060.87
2023-05-10T00:26:45.256Z,101060.57
2023-05-10T00:29:13.078Z,101064.76
2023-05-10T00:31:40.913Z,101068.91
2023-05-10T00:34:08.783Z,101060.50
2023-05-10T00:36:36.658Z,101059.13
2023-05-10T00:39:05.852Z,101062.23
2023-05-10T00:41:35.055Z,101062.23
2023-05-10T00:44:04.369Z,101066.12
2023-05-10T00:46:32.774Z,101061.65
2023-05-10T00:49:00.738Z,101062.43
2023-05-10T00:51:28.765Z,101061.38
2023-05-10T00:53:58.350Z,101057.43
2023-05-10T00:56:27.551Z,101063.19
2023-05-10T00:58:55.563Z,101066.81
2023-05-10T01:01:23.689Z,101061.32
2023-05-10T01:03:52.111Z,101063.58
2023-05-10T01:06:20.049Z,101072.73
2023-05-10T01:08:48.019Z,101082.64
2023-05-10T01:11:16.162Z,101082.64
2023-05-10T01:13:47.423Z,101087.28
2023-05-10T01:16:15.812Z,101087.77
2023-05-10T01:18:45.645Z,101094.84
2023-05-10T01:21:46.934Z,101092.45
2023-05-10T01:24:23.887Z,101098.20
2023-05-10T01:26:57.519Z,101099.48
2023-05-10T01:30:15.596Z,101104.95
2023-05-10T01:33:08.141Z,101109.39
2023-05-10T01:35:45.455Z,101107.82
2023-05-10T01:38:15.926Z,101110.70
2023-05-10T01:41:07.412Z,101109.13
2023-05-10T01:43:42.426Z,101111.19
2023-05-10T01:46:14.842Z,101116.16
2023-05-10T01:48:49.576Z,101120.31
2023-05-10T01:51:26.138Z,101124.50
2023-05-10T01:54:03.118Z,101120.61
2023-05-10T01:56:34.422Z,101123.48
2023-05-10T01:59:06.205Z,101127.93
2023-05-10T02:01:35.876Z,101125.05
2023-05-10T02:04:05.305Z,101133.95
2023-05-10T02:06:34.974Z,101141.27
2023-05-10T02:09:03.996Z,101147.03
2023-05-10T02:11:33.295Z,101142.09
2023-05-10T02:14:02.687Z,101143.37
2023-05-10T02:16:33.046Z,101142.88
2023-05-10T02:19:03.781Z,101142.38
2023-05-10T02:21:33.191Z,101138.92
2023-05-10T02:24:04.116Z,101142.58
2023-05-10T02:26:35.153Z,101141.27
2023-05-10T02:29:05.588Z,101147.03
2023-05-10T02:31:35.775Z,101144.15
2023-05-10T02:34:05.946Z,101140.29
2023-05-10T02:36:34.463Z,101146.54
2023-05-10T02:39:04.267Z,101147.84
2023-05-10T02:41:34.690Z,101151.48
2023-05-10T02:44:05.208Z,101153.57
2023-05-10T02:46:33.383Z,101147.55
2023-05-10T02:49:01.481Z,101152.00
2023-05-10T02:51:34.361Z,101149.91
2023-05-10T02:54:10.396Z,101150.20
2023-05-10T02:56:42.995Z,101153.86
2023-05-10T02:59:10.963Z,101145.72
2023-05-10T03:01:38.918Z,101151.48
2023-05-10T03:04:07.034Z,101144.97
2023-05-10T03:06:35.203Z,101155.95
2023-05-10T03:09:04.782Z,101149.71
2023-05-10T03:11:49.529Z,101158.84
2023-05-10T03:14:32.620Z,101150.43
2023-05-10T03:17:12.819Z,101154.58
2023-05-10T03:19:58.654Z,101147.75
2023-05-10T03:22:34.026Z,101160.01
2023-05-10T03:25:06.863Z,101151.41
2023-05-10T03:27:36.285Z,101155.56
2023-05-10T03:30:05.042Z,101149.80
2023-05-10T03:32:35.225Z,101155.89
2023-05-10T03:35:04.558Z,101154.58
2023-05-10T03:37:32.472Z,101150.13
2023-05-10T03:40:00.379Z,101154.58
2023-05-10T03:42:28.298Z,101157.95
2023-05-10T03:44:56.670Z,101155.37
2023-05-10T03:47:24.752Z,101149.12
2023-05-10T03:49:52.636Z,101155.63
2023-05-10T03:52:20.552Z,101151.18
2023-05-10T03:54:48.418Z,101156.74
2023-05-10T03:57:16.313Z,101163.28
2023-05-10T03:59:44.177Z,101160.70
2023-05-10T04:02:12.206Z,101158.60
2023-05-10T04:04:40.188Z,101163.87
2023-05-10T04:07:08.128Z,101163.87
2023-05-10T04:09:36.059Z,101166.75
2023-05-10T04:12:04.670Z,101165.96
2023-05-10T04:14:32.617Z,101165.44
2023-05-10T04:17:00.532Z,101168.31
2023-05-10T04:19:32.543Z,101169.10
2023-05-10T04:22:01.147Z,101171.45
2023-05-10T04:24:29.054Z,101174.66
2023-05-10T04:26:57.969Z,101176.52
2023-05-10T04:29:25.983Z,101173.13
2023-05-10T04:31:53.854Z,101180.77
2023-05-10T04:34:23.354Z,101181.56
2023-05-10T04:36:51.291Z,101177.08
2023-05-10T04:39:19.162Z,101183.13
2023-05-10T04:41:47.259Z,101178.39
2023-05-10T04:44:15.744Z,101182.84
2023-05-10T04:46:43.776Z,101177.60
2023-05-10T04:49:11.764Z,101181.27
2023-05-10T04:51:39.769Z,101178.09
2023-05-10T04:54:07.854Z,101186.23
2023-05-10T04:56:35.796Z,101182.77
2023-05-10T04:59:03.802Z,101183.29
2023-05-10T05:01:31.814Z,101185.42
2023-05-10T05:04:01.565Z,101178.09
2023-05-10T05:06:29.627Z,101186.73
2023-05-10T05:08:57.548Z,101187.80
2023-05-10T05:11:25.574Z,101185.71
2023-05-10T05:13:53.869Z,101182.34
2023-05-10T05:16:21.738Z,101183.42
2023-05-10T05:18:49.609Z,101184.50
2023-05-10T05:21:18.692Z,101188.16
2023-05-10T05:23:47.086Z,101190.55
2023-05-10T05:26:15.085Z,101189.54
2023-05-10T05:28:42.980Z,101187.97
2023-05-10T05:31:11.539Z,101197.35
2023-05-10T05:33:40.507Z,101201.05
2023-05-10T05:36:08.757Z,101199.97
2023-05-10T05:38:36.676Z,101206.28
2023-05-10T05:41:05.308Z,101208.67
2023-05-10T05:43:33.222Z,101209.95
2023-05-10T05:46:01.393Z,101218.09
2023-05-10T05:48:29.282Z,101208.38
2023-05-10T05:50:58.914Z,101216.19
2023-05-10T05:53:26.885Z,101221.36
2023-05-10T05:56:00.049Z,101216.91
2023-05-10T05:58:28.357Z,101221.36
2023-05-10T06:00:56.360Z,101233.68
2023-05-10T06:03:24.356Z,101232.05
2023-05-10T06:05:52.296Z,101226.82
2023-05-10T06:08:20.198Z,101231.30
2023-05-10T06:10:48.381Z,101223.97
2023-05-10T06:13:16.276Z,101233.36
2023-05-10T06:15:44.276Z,101229.70
2023-05-10T06:18:12.302Z,101231.30
2023-05-10T06:20:40.225Z,101241.50
2023-05-10T06:23:08.262Z,101242.77
2023-05-10T06:25:36.189Z,101247.22
2023-05-10T06:28:04.390Z,101244.09
2023-05-10T06:30:32.396Z,101246.24
2023-05-10T06:33:00.508Z,101255.13
2023-05-10T06:35:28.496Z,101254.94
2023-05-10T06:37:57.089Z,101256.02
2023-05-10T06:40:25.133Z,101261.88
2023-05-10T06:42:53.544Z,101262.76
2023-05-10T06:45:21.575Z,101270.08
2023-05-10T06:47:49.589Z,101269.36
2023-05-10T06:50:17.799Z,101267.85
2023-05-10T06:52:45.919Z,101279.95
2023-05-10T06:55:14.186Z,101270.51
2023-05-10T06:57:42.370Z,101272.70
2023-05-10T07:00:12.021Z,101274.49
2023-05-10T07:02:39.995Z,101275.77
2023-05-10T07:05:08.419Z,101284.89
2023-05-10T07:07:36.581Z,101282.11
2023-05-10T07:10:05.147Z,101275.05
2023-05-10T07:12:33.368Z,101276.62
2023-05-10T07:15:01.423Z,101278.52
2023-05-10T07:17:29.423Z,101284.44
2023-05-10T07:19:57.384Z,101285.48
2023-05-10T07:22:25.294Z,101288.59
2023-05-10T07:24:53.228Z,101284.20
2023-05-10T07:27:21.148Z,101292.94
2023-05-10T07:29:49.025Z,101296.11
2023-05-10T07:32:16.933Z,101291.66
2023-05-10T07:34:44.942Z,101294.60
2023-05-10T07:37:12.779Z,101288.03
2023-05-10T07:39:40.747Z,101306.67
2023-05-10T07:42:08.614Z,101292.58
2023-05-10T07:44:39.280Z,101287.90
2023-05-10T07:47:07.146Z,101292.28
2023-05-10T07:49:35.046Z,101299.41
2023-05-10T07:52:02.985Z,101292.64
2023-05-10T07:54:30.900Z,101290.84
2023-05-10T07:56:58.830Z,101299.05
2023-05-10T07:59:26.775Z,101286.46
2023-05-10T08:01:54.745Z,101291.46
2023-05-10T08:04:22.819Z,101294.67
2023-05-10T08:06:50.882Z,101299.34
2023-05-10T08:09:20.033Z,101290.42
2023-05-10T08:11:47.960Z,101305.16
2023-05-10T08:14:15.869Z,101289.77
2023-05-10T08:16:43.715Z,101290.55
2023-05-10T08:19:11.747Z,101300.72
2023-05-10T08:21:39.807Z,101305.16
2023-05-10T08:24:08.113Z,101307.75
2023-05-10T08:26:36.087Z,101306.12
2023-05-10T08:29:04.121Z,101313.38
2023-05-10T08:31:32.189Z,101312.79
2023-05-10T08:34:00.271Z,101311.05
2023-05-10T08:36:28.811Z,101307.91
2023-05-10T08:38:57.171Z,101307.62
2023-05-10T08:41:26.858Z,101317.30
2023-05-10T08:43:56.161Z,101315.80
2023-05-10T08:46:25.284Z,101314.03
2023-05-10T08:48:54.401Z,101312.72
2023-05-10T08:51:29.013Z,101317.43
2023-05-10T08:53:57.760Z,101308.53
2023-05-10T08:56:26.436Z,101310.98
2023-05-10T08:58:54.480Z,101310.30
2023-05-10T09:01:23.663Z,101313.73
2023-05-10T09:03:52.914Z,101314.29
2023-05-10T09:06:21.062Z,101312.55
2023-05-10T09:08:50.026Z,101318.97
2023-05-10T09:11:18.788Z,101308.73
2023-05-10T09:13:47.038Z,101304.58
2023-05-10T09:18:48.209Z,101311.77
2023-05-10T09:21:16.247Z,101314.45
2023-05-10T09:23:49.121Z,101316.68
2023-05-10T09:26:17.391Z,101309.38
2023-05-10T09:28:56.754Z,101316.84
2023-05-10T09:31:24.913Z,101309.77
2023-05-10T09:33:53.744Z,101305.63
2023-05-10T09:36:21.795Z,101305.46
2023-05-10T09:38:54.908Z,101308.17
2023-05-10T09:41:24.791Z,101312.13
2023-05-10T09:43:57.466Z,101311.97
2023-05-10T09:46:26.611Z,101313.54
2023-05-10T09:48:54.527Z,101304.38
2023-05-10T09:51:26.705Z,101306.51
2023-05-10T09:54:15.607Z,101303.11
2023-05-10T09:56:44.119Z,101304.97
2023-05-10T09:59:13.979Z,101309.91
2023-05-10T10:01:42.830Z,101320.14
2023-05-10T10:04:12.002Z,101307.26
2023-05-10T10:06:43.721Z,101307.26
2023-05-10T10:09:11.982Z,101313.11
2023-05-10T10:11:41.394Z,101305.52
2023-05-10T10:14:09.214Z,101306.38
2023-05-10T10:16:39.925Z,101317.10
2023-05-10T10:19:14.969Z,101304.61
2023-05-10T10:21:43.042Z,101313.77
2023-05-10T10:24:10.908Z,101312.69
2023-05-10T10:26:45.001Z,101312.69
2023-05-10T10:29:25.750Z,101318.73
2023-05-10T10:32:32.554Z,101310.66
2023-05-10T10:35:01.472Z,101312.03
2023-05-10T10:37:46.412Z,101311.28
2023-05-10T10:40:35.142Z,101300.55
2023-05-10T10:43:29.292Z,101313.47
2023-05-10T10:46:17.605Z,101310.30
2023-05-10T10:49:13.320Z,101305.30
2023-05-10T10:51:42.118Z,101298.43
2023-05-10T10:54:14.049Z,101314.68
2023-05-10T10:56:41.914Z,101304.97
2023-05-10T10:59:10.624Z,101302.06
2023-05-10T11:01:38.829Z,101297.35
2023-05-10T11:04:06.751Z,101299.45
2023-05-10T11:06:36.562Z,101297.65
2023-05-10T11:09:09.495Z,101305.76
2023-05-10T11:11:57.738Z,101306.84
2023-05-10T11:14:25.979Z,101293.49
2023-05-10T11:16:54.232Z,101296.17
2023-05-10T11:19:22.491Z,101295.39
2023-05-10T11:22:13.678Z,101290.16
2023-05-10T11:24:41.715Z,101299.34
2023-05-10T11:27:10.142Z,101300.39
2023-05-10T11:29:37.967Z,101307.20
2023-05-10T11:32:10.399Z,101303.01
2023-05-10T11:34:38.302Z,101300.06
2023-05-10T11:37:06.247Z,101309.74
2023-05-10T11:39:35.819Z,101308.41
2023-05-10T11:42:03.722Z,101309.22
2023-05-10T11:44:33.672Z,101318.90
2023-05-10T11:47:05.380Z,101317.59
2023-05-10T11:49:33.514Z,101327.30
2023-05-10T11:52:09.414Z,101313.18
2023-05-10T11:54:37.556Z,101310.56
2023-05-10T11:57:06.281Z,101322.63
2023-05-10T11:59:34.417Z,101310.01
2023-05-10T12:02:02.719Z,101302.95
2023-05-10T12:04:31.699Z,101317.88
2023-05-10T12:06:59.792Z,101311.31
2023-05-10T12:09:42.527Z,101313.70
2023-05-10T12:12:12.198Z,101313.18
2023-05-10T12:14:40.559Z,101300.36
2023-05-10T12:17:08.505Z,101310.89
2023-05-10T12:19:40.938Z,101303.53
2023-05-10T12:22:08.867Z,101307.23
2023-05-10T12:24:38.398Z,101305.36
2023-05-10T12:27:13.121Z,101301.96
2023-05-10T12:29:46.823Z,101307.23
2023-05-10T12:32:14.823Z,101301.44
2023-05-10T12:34:42.723Z,101313.80
2023-05-10T12:37:10.632Z,101305.36
2023-05-10T12:39:46.731Z,101311.94
2023-05-10T12:42:14.714Z,101306.96
2023-05-10T12:44:42.747Z,101305.98
2023-05-10T12:47:10.829Z,101312.52
2023-05-10T12:49:38.858Z,101312.52
2023-05-10T12:52:06.833Z,101311.77
2023-05-10T12:54:34.848Z,101313.11
2023-05-10T12:57:02.731Z,101312.33
2023-05-10T12:59:30.651Z,101310.50
2023-05-10T13:01:59.838Z,101307.62
2023-05-10T13:04:28.117Z,101310.01
2023-05-10T13:06:58.476Z,101305.79
2023-05-10T13:09:27.398Z,101310.01
2023-05-10T13:11:58.203Z,101313.15
2023-05-10T13:14:27.116Z,101313.67
2023-05-10T13:16:55.253Z,101307.88
2023-05-10T13:19:23.430Z,101310.01
2023-05-10T13:21:51.789Z,101302.91
2023-05-10T13:24:20.033Z,101305.00
2023-05-10T13:26:47.929Z,101309.19
2023-05-10T13:29:16.016Z,101301.08
2023-05-10T13:31:44.025Z,101300.03
2023-05-10T13:34:12.004Z,101292.15
2023-05-10T13:36:40.546Z,101301.63
2023-05-10T13:39:08.494Z,101295.03
2023-05-10T13:41:36.414Z,101293.46
2023-05-10T13:44:04.392Z,101300.55
2023-05-10T13:46:33.324Z,101293.75
2023-05-10T13:49:01.374Z,101300.06
2023-05-10T13:51:29.313Z,101297.16
2023-05-10T13:53:57.372Z,101286.40
2023-05-10T13:56:25.319Z,101289.80
2023-05-10T13:58:53.607Z,101285.35
2023-05-10T14:01:21.793Z,101285.35
2023-05-10T14:03:50.559Z,101284.80
2023-05-10T14:06:18.564Z,101280.87
2023-05-10T14:08:46.487Z,101283.52
2023-05-10T14:11:15.286Z,101287.18
2023-05-10T14:13:43.357Z,101278.25
2023-05-10T14:16:11.296Z,101275.60
2023-05-10T14:18:39.446Z,101279.56
2023-05-10T14:21:07.764Z,101282.96
2023-05-10T14:23:35.699Z,101272.20
2023-05-10T14:26:03.800Z,101275.60
2023-05-10T14:28:31.834Z,101275.60
2023-05-10T14:31:00.292Z,101274.56
2023-05-10T14:33:28.277Z,101278.25
2023-05-10T14:35:59.114Z,101269.82
2023-05-10T14:38:27.007Z,101276.39
2023-05-10T14:40:54.985Z,101267.98
2023-05-10T14:43:22.973Z,101271.65
2023-05-10T14:45:51.001Z,101269.55
2023-05-10T14:48:19.869Z,101271.65
2023-05-10T14:50:48.356Z,101269.26
2023-05-10T14:53:16.223Z,101282.15
2023-05-10T14:55:44.141Z,101272.14
2023-05-10T14:58:12.050Z,101276.36
2023-05-10T15:00:40.084Z,101284.99
2023-05-10T15:03:08.725Z,101273.97
2023-05-10T15:05:36.950Z,101278.19
2023-05-10T15:08:06.830Z,101279.98
2023-05-10T15:10:35.331Z,101282.63
2023-05-10T15:13:03.569Z,101277.86
2023-05-10T15:15:31.546Z,101283.95
2023-05-10T15:17:59.614Z,101281.82
2023-05-10T15:20:27.616Z,101278.94
2023-05-10T15:22:55.578Z,101282.87
2023-05-10T15:25:23.824Z,101282.87
2023-05-10T15:27:52.178Z,101288.06
2023-05-10T15:30:20.112Z,101282.27
2023-05-10T15:32:47.966Z,101284.66
2023-05-10T15:35:16.723Z,101290.45
2023-05-10T15:37:44.713Z,101287.02
2023-05-10T15:40:12.996Z,101290.68
2023-05-10T15:42:40.907Z,101287.02
2023-05-10T15:45:09.445Z,101287.80
2023-05-10T15:47:37.331Z,101292.80
2023-05-10T15:50:05.744Z,101294.12
2023-05-10T15:52:33.685Z,101296.70
2023-05-10T15:55:01.663Z,101304.05
2023-05-10T15:57:29.720Z,101305.36
2023-05-10T15:59:57.682Z,101297.25
2023-05-10T16:02:25.761Z,101295.95
2023-05-10T16:04:53.732Z,101295.13
2023-05-10T16:07:21.673Z,101301.70
2023-05-10T16:09:50.877Z,101301.70
2023-05-10T16:12:18.834Z,101299.34
2023-05-10T16:14:48.204Z,101298.82
2023-05-10T16:17:19.345Z,101303.53
2023-05-10T16:19:48.281Z,101302.48
2023-05-10T16:22:16.416Z,101300.39
2023-05-10T16:24:44.364Z,101311.94
2023-05-10T16:27:13.932Z,101313.27
2023-05-10T16:29:41.978Z,101319.29
2023-05-10T16:32:09.878Z,101316.38
2023-05-10T16:34:37.953Z,101312.42
2023-05-10T16:37:05.882Z,101320.80
2023-05-10T16:39:33.866Z,101322.89
2023-05-10T16:42:02.471Z,101333.38
2023-05-10T16:44:30.476Z,101321.05
2023-05-10T16:46:58.631Z,101328.61
2023-05-10T16:49:27.725Z,101322.30
2023-05-10T16:51:55.775Z,101335.94
2023-05-10T16:54:24.141Z,101328.05
2023-05-10T16:56:52.328Z,101334.04
2023-05-10T16:59:20.203Z,101330.09
2023-05-10T17:01:48.372Z,101332.70
2023-05-10T17:04:17.978Z,101340.58
2023-05-10T17:06:45.957Z,101332.93
2023-05-10T17:09:13.930Z,101335.02
2023-05-10T17:11:44.672Z,101343.66
2023-05-10T17:14:12.789Z,101343.62
2023-05-10T17:16:40.718Z,101338.06
2023-05-10T17:19:09.587Z,101341.17
2023-05-10T17:21:38.069Z,101343.78
2023-05-10T17:24:06.297Z,101338.52
2023-05-10T17:26:35.936Z,101338.26
2023-05-10T17:29:03.793Z,101339.30
2023-05-10T17:31:31.692Z,101337.15
2023-05-10T17:33:59.798Z,101345.52
2023-05-10T17:36:27.893Z,101336.03
2023-05-10T17:38:55.988Z,101333.91
2023-05-10T17:41:24.648Z,101333.06
2023-05-10T17:43:52.673Z,101344.77
2023-05-10T17:46:20.858Z,101345.29
2023-05-10T17:48:49.016Z,101339.20
2023-05-10T17:51:17.039Z,101342.80
2023-05-10T17:53:46.029Z,101343.03
2023-05-10T17:56:13.961Z,101346.14
2023-05-10T17:58:41.961Z,101350.26
2023-05-10T18:01:09.928Z,101348.43
2023-05-10T18:03:37.967Z,101345.48
2023-05-10T18:06:06.144Z,101341.23
2023-05-10T18:08:34.470Z,101351.17
2023-05-10T18:11:02.784Z,101350.59
2023-05-10T18:13:30.814Z,101353.98
2023-05-10T18:15:58.737Z,101350.26
2023-05-10T18:18:26.927Z,101350.72
2023-05-10T18:20:58.160Z,101343.59
2023-05-10T18:23:26.349Z,101348.27
2023-05-10T18:25:54.515Z,101350.26
2023-05-10T18:28:22.456Z,101358.56
2023-05-10T18:30:50.515Z,101362.16
2023-05-10T18:33:18.465Z,101356.84
2023-05-10T18:35:46.495Z,101365.10
2023-05-10T18:38:15.096Z,101379.43
2023-05-10T18:40:43.222Z,101399.96
2023-05-10T18:43:11.273Z,101407.91
2023-05-10T18:45:40.476Z,101408.73
2023-05-10T18:48:09.196Z,101417.10
2023-05-10T18:50:37.210Z,101413.73
2023-05-10T18:53:05.152Z,101417.39
2023-05-10T18:55:33.093Z,101413.14
2023-05-10T18:58:01.696Z,101414.81
2023-05-10T19:00:29.669Z,101407.35
2023-05-10T19:02:57.643Z,101407.75
2023-05-10T19:05:31.183Z,101406.83
2023-05-10T19:07:59.088Z,101407.52
2023-05-10T19:10:26.987Z,101406.11
2023-05-10T19:12:55.078Z,101403.92
2023-05-10T19:15:23.191Z,101410.66
2023-05-10T19:17:51.484Z,101411.15
2023-05-10T19:20:19.534Z,101417.39
2023-05-10T19:25:25.733Z,101423.61
2023-05-10T19:27:55.696Z,101425.70
2023-05-10T19:30:24.470Z,101425.08
2023-05-10T19:32:52.602Z,101422.73
2023-05-10T19:35:20.675Z,101428.94
2023-05-10T19:37:48.839Z,101439.59
2023-05-10T19:40:17.257Z,101435.97
2023-05-10T19:42:45.295Z,101438.52
2023-05-10T19:45:13.626Z,101437.08
2023-05-10T19:47:43.211Z,101435.51
2023-05-10T19:50:11.359Z,101434.40
2023-05-10T19:52:39.255Z,101441.13
2023-05-10T19:55:07.738Z,101437.44
2023-05-10T19:57:35.641Z,101433.80
2023-05-10T20:00:03.815Z,101432.99
2023-05-10T20:02:31.883Z,101433.48
2023-05-10T20:04:59.891Z,101437.63
2023-05-10T20:07:27.869Z,101433.80
2023-05-10T20:09:56.140Z,101443.20
2023-05-10T20:12:24.265Z,101430.12
2023-05-10T20:14:52.226Z,101441.59
2023-05-10T20:17:20.148Z,101436.16
2023-05-10T20:19:48.574Z,101444.77
2023-05-10T20:22:16.493Z,101447.94
2023-05-10T20:24:44.504Z,101449.24
2023-05-10T20:27:12.454Z,101451.34
2023-05-10T20:29:40.444Z,101443.48
2023-05-10T20:32:08.512Z,101444.01
2023-05-10T20:34:36.896Z,101447.18
2023-05-10T20:37:05.048Z,101446.86
2023-05-10T20:39:33.001Z,101447.64
2023-05-10T20:42:01.116Z,101438.75
2023-05-10T20:44:28.992Z,101444.01
2023-05-10T20:46:57.016Z,101443.48
2023-05-10T20:49:25.053Z,101434.10
2023-05-10T20:51:53.061Z,101438.26
2023-05-10T20:54:21.693Z,101439.04
2023-05-10T20:56:49.586Z,101432.50
2023-05-10T20:59:17.523Z,101439.86
2023-05-10T21:01:46.588Z,101441.43
2023-05-10T21:04:14.585Z,101445.41
2023-05-10T21:06:44.375Z,101441.27
2023-05-10T21:09:12.199Z,101439.47
2023-05-10T21:11:40.094Z,101435.51
2023-05-10T21:14:09.100Z,101437.57
2023-05-10T21:16:37.694Z,101429.27
2023-05-10T21:19:05.727Z,101426.09
2023-05-10T21:21:33.788Z,101434.10
2023-05-10T21:24:01.739Z,101423.12
2023-05-10T21:26:30.024Z,101430.12
2023-05-10T21:28:58.014Z,101419.13
2023-05-10T21:31:26.065Z,101415.46
2023-05-10T21:33:53.987Z,101424.39
2023-05-10T21:36:21.990Z,101415.79
2023-05-10T21:38:51.765Z,101411.60
2023-05-10T21:41:19.816Z,101420.40
2023-05-10T21:43:47.752Z,101418.54
2023-05-10T21:46:16.762Z,101427.43
2023-05-10T21:48:44.746Z,101421.68
2023-05-10T21:51:13.114Z,101425.38
2023-05-10T21:53:41.734Z,101426.16
2023-05-10T21:56:09.659Z,101417.52
2023-05-10T21:58:37.837Z,101422.00
2023-05-10T22:01:05.869Z,101420.40
2023-05-10T22:03:34.001Z,101422.49
2023-05-10T22:06:01.973Z,101424.09
2023-05-10T22:08:29.916Z,101415.46
2023-05-10T22:10:57.771Z,101419.13
2023-05-10T22:13:25.736Z,101417.52
2023-05-10T22:15:53.749Z,101413.89
2023-05-10T22:18:22.386Z,101424.09
2023-05-10T22:20:50.279Z,101418.83
2023-05-10T22:23:18.342Z,101420.59
2023-05-10T22:25:46.161Z,101422.37
2023-05-10T22:28:14.176Z,101416.31
2023-05-10T22:30:44.128Z,101430.87
2023-05-10T22:33:12.112Z,101420.83
2023-05-10T22:35:40.184Z,101430.41
2023-05-10T22:38:08.166Z,101430.27
2023-05-10T22:40:36.128Z,101428.38
2023-05-10T22:43:04.026Z,101434.79
2023-05-10T22:45:32.044Z,101433.68
2023-05-10T22:48:01.106Z,101431.59
2023-05-10T22:50:31.011Z,101436.55
2023-05-10T22:52:58.870Z,101433.55
2023-05-10T22:55:26.953Z,101434.04
2023-05-10T22:57:55.239Z,101434.04
2023-05-10T23:00:24.429Z,101438.48
2023-05-10T23:02:53.047Z,101438.48
2023-05-10T23:05:21.200Z,101438.19
2023-05-10T23:07:54.238Z,101434.85
2023-05-10T23:10:22.392Z,101437.70
2023-05-10T23:12:50.347Z,101439.76
2023-05-10T23:15:18.281Z,101444.73
2023-05-10T23:17:46.314Z,101444.08
2023-05-10T23:20:14.693Z,101448.85
2023-05-10T23:22:42.624Z,101440.74
2023-05-10T23:25:11.155Z,101436.00
2023-05-10T23:27:39.069Z,101433.41
2023-05-10T23:30:07.593Z,101438.35
2023-05-10T23:32:35.591Z,101437.57
2023-05-10T23:35:03.523Z,101438.52
2023-05-10T23:37:31.423Z,101436.16
2023-05-10T23:39:59.399Z,101434.89
2023-05-10T23:42:27.350Z,101447.28
2023-05-10T23:44:55.322Z,101433.16
2023-05-10T23:47:23.203Z,101430.27
2023-05-10T23:49:51.595Z,101430.77
2023-05-10T23:52:19.558Z,101427.43
2023-05-10T23:54:47.519Z,101435.21
2023-05-10T23:57:15.787Z,101428.38
2023-05-10T23:59:43.788Z,101422.82
